Terminal Aerodrome Forecast
Issued by NWS Cleveland, OH

Home | Current Version | Previous Version | Text Only | Print | Product List | Glossary On
Versions: 1 2 3 4 5 6 7 8 9 10 11 12 13 14 15 16 17 18 19 20 21
000
FTUS41 KCLE 012300
TAFCAK
TAF
KCAK 012330Z 0200/0224 21012G20KT P6SM VCSH BKN050 BKN100
     FM020100 21008KT P6SM SCT060 BKN250
     FM021100 21006KT 4SM -RA BR OVC025
     FM021400 24006KT 3SM RA BR OVC007
     FM021800 27008KT P6SM BKN012 OVC080
     FM022000 27008KT P6SM SCT025 BKN080=

USA.gov is the U.S. government's official web portal to all federal, state and local government web resources and services.